Time;durP1;ratioP1;P1;durP2;ratioP2;P2;SDS_P1;SDS_P2;PMS_P1;PMS_P2;Temp;Humidity;BMP_temperature;BMP_pressure;BME280_temperature;BME280_humidity;BME280_pressure;Samples;Min_cycle;Max_cycle;Signal;HPM_P1;HPM_P2
2022/05/29 00:00:53;;;;;;;6.93;3.37;;;21.30;94.20;;;;;;4987814;28;20200;-75
2022/05/29 00:03:22;;;;;;;5.57;3.27;;;21.30;94.10;;;;;;4983399;28;20204;-75
2022/05/29 00:05:51;;;;;;;4.83;3.10;;;21.30;94.10;;;;;;4983083;28;20225;-76
2022/05/29 00:08:26;;;;;;;4.00;2.60;;;21.30;94.10;;;;;;4982596;28;20197;-75
2022/05/29 00:10:57;;;;;;;4.30;3.20;;;21.30;94.10;;;;;;4984159;28;20192;-76
2022/05/29 00:13:25;;;;;;;5.33;3.50;;;21.40;94.20;;;;;;4983228;28;20201;-74
2022/05/29 00:15:54;;;;;;;8.50;3.37;;;21.40;94.20;;;;;;4983250;28;20201;-75
2022/05/29 00:18:22;;;;;;;8.20;3.40;;;21.40;94.10;;;;;;4986269;28;20586;-76
2022/05/29 00:20:53;;;;;;;6.50;3.83;;;21.40;94.10;;;;;;4981449;28;20201;-75
2022/05/29 00:23:22;;;;;;;9.63;3.90;;;21.40;94.10;;;;;;4981780;28;20688;-75
2022/05/29 00:25:53;;;;;;;6.67;3.37;;;21.40;94.10;;;;;;4981493;28;20225;-75
2022/05/29 00:28:23;;;;;;;5.37;3.03;;;21.40;94.10;;;;;;4978685;28;20193;-75
2022/05/29 00:30:51;;;;;;;10.20;3.17;;;21.40;94.10;;;;;;4982684;28;20213;-74
2022/05/29 00:33:20;;;;;;;6.77;3.43;;;21.40;94.10;;;;;;4983630;28;20205;-75
2022/05/29 00:35:48;;;;;;;4.47;3.00;;;21.40;94.10;;;;;;4985149;28;20198;-75
2022/05/29 00:38:17;;;;;;;5.73;3.33;;;21.40;94.00;;;;;;4984590;28;20208;-75
2022/05/29 00:40:52;;;;;;;7.40;3.63;;;21.40;94.00;;;;;;4982476;28;20212;-75
2022/05/29 00:43:23;;;;;;;4.47;3.07;;;21.40;94.00;;;;;;4983305;28;20189;-77
2022/05/29 00:45:54;;;;;;;7.43;3.23;;;21.40;94.00;;;;;;4982027;28;20205;-75
2022/05/29 00:48:25;;;;;;;5.83;3.00;;;21.40;94.00;;;;;;4985918;28;20252;-76
2022/05/29 00:50:56;;;;;;;5.60;3.37;;;21.50;94.10;;;;;;4982424;28;20190;-75
2022/05/29 00:53:24;;;;;;;6.03;3.10;;;21.50;94.10;;;;;;4981344;28;20200;-75
2022/05/29 00:55:58;;;;;;;7.10;3.43;;;21.50;94.00;;;;;;4980618;28;20233;-76
2022/05/29 00:58:28;;;;;;;7.63;3.73;;;21.50;94.10;;;;;;4980254;28;20198;-75
2022/05/29 01:00:58;;;;;;;4.03;3.03;;;21.50;94.10;;;;;;4977756;28;20193;-75
2022/05/29 01:03:26;;;;;;;6.33;3.47;;;21.50;94.20;;;;;;4982160;28;20204;-74
2022/05/29 01:05:55;;;;;;;6.18;3.65;;;21.50;94.10;;;;;;4984090;28;20785;-75
2022/05/29 01:08:28;;;;;;;5.00;3.27;;;21.50;94.40;;;;;;4983969;28;20197;-76
2022/05/29 01:11:19;;;;;;;6.80;3.10;;;21.50;94.40;;;;;;4981980;28;20200;-76
2022/05/29 01:14:00;;;;;;;4.40;3.10;;;21.50;94.30;;;;;;4981711;28;20320;-76
2022/05/29 01:16:41;;;;;;;3.93;2.87;;;21.40;94.20;;;;;;4980075;28;20189;-76
2022/05/29 01:19:41;;;;;;;5.97;3.23;;;21.50;94.20;;;;;;4977895;28;20615;-75
2022/05/29 01:22:30;;;;;;;7.80;3.80;;;21.50;94.20;;;;;;4963974;28;20281;-75
2022/05/29 01:25:46;;;;;;;5.17;4.17;;;21.50;94.10;;;;;;4989786;28;20205;-76
2022/05/29 01:28:29;;;;;;;7.57;4.77;;;21.50;94.50;;;;;;4923883;28;20201;-75
2022/05/29 01:31:07;;;;;;;7.88;5.30;;;21.40;94.20;;;;;;4980613;28;20200;-75
2022/05/29 01:33:42;;;;;;;8.70;4.97;;;21.50;94.20;;;;;;4980460;28;20193;-76
2022/05/29 01:36:14;;;;;;;9.00;5.83;;;21.40;94.20;;;;;;4978012;28;20180;-76
2022/05/29 01:38:47;;;;;;;8.70;5.50;;;21.40;94.10;;;;;;4984051;28;20237;-75
2022/05/29 01:41:23;;;;;;;7.67;5.67;;;21.40;94.10;;;;;;4983725;28;20758;-75
2022/05/29 01:43:59;;;;;;;8.83;5.37;;;21.40;94.10;;;;;;4980541;28;20192;-75
2022/05/29 01:46:32;;;;;;;8.53;5.37;;;21.40;94.00;;;;;;4980397;28;20675;-75
2022/05/29 01:49:08;;;;;;;7.13;4.67;;;21.40;94.00;;;;;;4999213;28;20869;-75
2022/05/29 01:51:41;;;;;;;6.70;5.47;;;21.40;94.00;;;;;;4998846;28;20200;-76
2022/05/29 01:54:15;;;;;;;6.97;4.57;;;21.40;94.00;;;;;;4996224;28;20189;-75
2022/05/29 01:56:49;;;;;;;8.70;5.10;;;21.40;93.90;;;;;;4999729;28;20192;-75
2022/05/29 01:59:22;;;;;;;7.53;5.43;;;21.40;93.90;;;;;;4997958;28;20192;-75
2022/05/29 02:01:55;;;;;;;7.10;5.17;;;21.40;93.90;;;;;;4992905;28;20839;-75
2022/05/29 02:04:27;;;;;;;7.80;4.73;;;21.40;93.80;;;;;;4999101;28;20207;-75
2022/05/29 02:09:46;;;;;;;8.13;4.70;;;21.40;93.80;;;;;;4992898;28;20196;-76
2022/05/29 02:12:19;;;;;;;7.57;4.70;;;21.40;93.70;;;;;;4998417;28;20184;-75
2022/05/29 02:14:55;;;;;;;7.93;4.93;;;21.40;93.70;;;;;;4993322;28;20839;-75
2022/05/29 02:17:29;;;;;;;9.20;5.10;;;21.40;93.70;;;;;;5000759;28;20231;-74
2022/05/29 02:20:01;;;;;;;7.83;4.43;;;21.40;93.70;;;;;;4999575;28;20705;-75
2022/05/29 02:22:33;;;;;;;5.47;4.27;;;21.40;93.60;;;;;;4994718;28;20211;-75
2022/05/29 02:25:06;;;;;;;7.37;4.67;;;21.40;93.70;;;;;;4997120;28;20199;-76
2022/05/29 02:27:38;;;;;;;9.23;4.57;;;21.40;94.00;;;;;;5003500;28;20193;-76
2022/05/29 02:30:08;;;;;;;7.53;4.17;;;21.40;93.60;;;;;;5000641;28;20197;-75
2022/05/29 02:32:47;;;;;;;7.87;4.20;;;21.40;93.60;;;;;;4989030;28;20197;-76
2022/05/29 02:35:22;;;;;;;6.33;4.50;;;21.40;93.50;;;;;;4996966;28;20192;-75
2022/05/29 02:37:56;;;;;;;5.50;4.17;;;21.40;93.50;;;;;;4990051;28;20219;-77
2022/05/29 02:40:31;;;;;;;7.50;4.97;;;21.40;93.50;;;;;;4994083;28;20192;-75
2022/05/29 02:43:07;;;;;;;9.23;4.67;;;21.40;93.50;;;;;;4998332;28;20195;-75
2022/05/29 02:45:47;;;;;;;7.30;4.80;;;21.40;93.50;;;;;;4993012;28;20235;-76
2022/05/29 02:48:26;;;;;;;7.63;4.53;;;21.40;93.50;;;;;;4997765;28;20258;-75
2022/05/29 02:51:02;;;;;;;9.10;5.13;;;21.40;93.40;;;;;;4991895;28;20200;-75
2022/05/29 02:53:33;;;;;;;8.67;4.47;;;21.40;93.40;;;;;;5000832;28;20204;-76
2022/05/29 02:56:05;;;;;;;7.50;4.37;;;21.40;93.40;;;;;;4995375;28;20212;-75
2022/05/29 02:58:35;;;;;;;6.70;4.03;;;21.40;93.40;;;;;;4991088;28;20196;-75
2022/05/29 03:01:35;;;;;;;5.07;3.30;;;21.40;93.40;;;;;;4998517;28;20204;-75
2022/05/29 03:04:23;;;;;;;6.17;3.13;;;21.40;93.30;;;;;;4978844;28;20251;-76
2022/05/29 03:06:55;;;;;;;4.45;3.00;;;21.40;93.30;;;;;;4996478;28;20208;-76
2022/05/29 03:09:43;;;;;;;6.65;2.60;;;21.40;93.20;;;;;;4989047;28;20211;-76
2022/05/29 03:12:20;;;;;;;4.43;2.38;;;21.40;93.20;;;;;;4993277;28;20598;-76
2022/05/29 03:14:59;;;;;;;4.10;2.45;;;21.40;93.10;;;;;;4997998;28;20196;-80
2022/05/29 03:17:37;;;;;;;5.43;2.63;;;21.40;93.00;;;;;;4995936;28;20184;-75
2022/05/29 03:20:14;;;;;;;4.30;2.40;;;21.40;93.00;;;;;;4995544;28;20199;-75
2022/05/29 03:22:53;;;;;;;3.67;2.28;;;21.40;93.30;;;;;;5005519;28;20200;-75
2022/05/29 03:25:26;;;;;;;5.50;2.50;;;21.40;93.00;;;;;;4998993;28;20203;-75
2022/05/29 03:27:58;;;;;;;3.58;2.45;;;21.40;92.90;;;;;;4996782;28;20244;-76
2022/05/29 03:30:30;;;;;;;5.18;2.33;;;21.40;93.00;;;;;;5002207;28;20193;-75
2022/05/29 03:33:02;;;;;;;5.13;2.50;;;21.40;92.90;;;;;;4999347;28;20192;-76
2022/05/29 03:35:33;;;;;;;4.57;2.50;;;21.40;92.90;;;;;;5001788;28;20208;-75
2022/05/29 03:38:03;;;;;;;4.10;2.03;;;21.40;92.90;;;;;;5000916;28;20613;-75
2022/05/29 03:40:34;;;;;;;3.22;2.20;;;21.40;92.80;;;;;;5001325;28;20196;-75
2022/05/29 03:43:03;;;;;;;3.08;2.10;;;21.40;92.80;;;;;;4998320;28;20692;-74
2022/05/29 03:45:32;;;;;;;3.00;1.95;;;21.40;92.70;;;;;;4998018;28;20614;-75
2022/05/29 03:48:02;;;;;;;2.95;2.17;;;21.40;92.70;;;;;;4996319;28;20244;-75
2022/05/29 03:50:30;;;;;;;8.30;2.13;;;21.40;92.70;;;;;;5000462;28;20203;-75
2022/05/29 03:53:00;;;;;;;3.00;1.83;;;21.40;92.70;;;;;;5002251;28;20196;-75
2022/05/29 03:55:29;;;;;;;3.80;2.08;;;21.40;92.70;;;;;;4997950;28;20204;-74
2022/05/29 03:57:57;;;;;;;3.92;1.73;;;21.40;92.50;;;;;;5003873;28;20197;-75
2022/05/29 04:00:27;;;;;;;2.23;1.40;;;21.30;92.40;;;;;;5003953;28;20196;-75
2022/05/29 04:02:55;;;;;;;2.67;1.50;;;21.30;92.20;;;;;;5000346;28;20287;-74
2022/05/29 04:05:26;;;;;;;2.77;1.53;;;21.30;92.20;;;;;;5003938;28;20201;-75
2022/05/29 04:13:28;;;;;;;2.90;1.67;;;21.20;92.00;;;;;;5000276;28;20196;-74
2022/05/29 04:15:56;;;;;;;4.20;1.98;;;21.10;91.80;;;;;;4993794;28;20192;-75
2022/05/29 04:18:25;;;;;;;2.60;1.50;;;21.10;91.70;;;;;;4995070;28;20291;-75
2022/05/29 04:20:55;;;;;;;2.77;1.70;;;21.10;91.70;;;;;;5003617;28;20204;-75
2022/05/29 04:23:23;;;;;;;4.25;1.65;;;21.00;91.80;;;;;;4996939;28;20200;-75
2022/05/29 04:25:51;;;;;;;3.23;1.60;;;21.00;91.70;;;;;;5002260;28;20197;-76
2022/05/29 04:28:20;;;;;;;4.55;1.75;;;21.00;91.70;;;;;;4998921;28;20216;-76
2022/05/29 04:30:49;;;;;;;2.70;1.38;;;21.00;92.10;;;;;;5002531;28;20193;-76
2022/05/29 04:33:17;;;;;;;3.73;1.60;;;21.00;91.70;;;;;;5005710;28;20543;-76
2022/05/29 04:35:49;;;;;;;3.47;1.52;;;21.00;91.60;;;;;;5002344;28;20201;-75
2022/05/29 04:38:20;;;;;;;3.73;1.40;;;21.10;91.60;;;;;;4996959;28;20189;-75
2022/05/29 04:40:49;;;;;;;4.50;1.13;;;21.00;91.60;;;;;;5003323;28;20223;-76
2022/05/29 04:43:18;;;;;;;3.85;1.38;;;21.00;91.50;;;;;;5002596;28;20203;-74
2022/05/29 04:45:46;;;;;;;4.63;1.88;;;21.00;91.50;;;;;;4995740;28;20569;-74
2022/05/29 04:48:17;;;;;;;1.85;1.30;;;21.10;91.40;;;;;;5006411;28;20690;-76
2022/05/29 04:50:56;;;;;;;8.25;1.30;;;21.00;91.10;;;;;;4999590;28;20258;-74
2022/05/29 04:53:26;;;;;;;2.83;1.55;;;21.00;91.00;;;;;;5002289;28;20197;-76
2022/05/29 04:55:59;;;;;;;3.40;1.30;;;20.90;90.90;;;;;;4997194;28;20205;-75
2022/05/29 04:58:29;;;;;;;3.45;1.55;;;20.90;90.80;;;;;;5000527;28;20254;-75
2022/05/29 05:00:58;;;;;;;3.33;1.15;;;20.90;90.80;;;;;;4999381;28;20208;-76
2022/05/29 05:03:29;;;;;;;4.67;1.50;;;20.90;90.80;;;;;;4997340;28;20189;-75
2022/05/29 05:05:58;;;;;;;2.95;1.23;;;20.90;90.80;;;;;;5003262;28;20196;-75
2022/05/29 05:08:29;;;;;;;2.63;1.30;;;20.90;90.80;;;;;;4995511;28;20217;-75
2022/05/29 05:10:58;;;;;;;4.50;1.27;;;20.90;90.80;;;;;;4999577;28;20251;-74
2022/05/29 05:13:27;;;;;;;2.65;1.58;;;20.90;90.80;;;;;;5003943;28;20204;-76
2022/05/29 05:16:01;;;;;;;1.63;1.00;;;20.90;90.70;;;;;;4995722;28;20203;-74
2022/05/29 05:18:30;;;;;;;2.58;1.00;;;20.90;90.40;;;;;;5001268;28;20268;-74
2022/05/29 05:20:58;;;;;;;2.20;0.80;;;20.80;90.10;;;;;;4999843;28;20231;-74
2022/05/29 05:23:32;;;;;;;3.28;1.25;;;20.80;89.90;;;;;;4992266;28;20208;-78
2022/05/29 05:26:01;;;;;;;2.20;1.07;;;20.80;89.40;;;;;;4991490;28;20203;-75
2022/05/29 05:28:30;;;;;;;1.63;0.90;;;20.80;89.40;;;;;;4998449;28;20216;-76
2022/05/29 05:30:58;;;;;;;1.40;0.80;;;20.80;88.60;;;;;;4998330;28;20439;-74
2022/05/29 05:33:27;;;;;;;6.32;1.20;;;20.70;88.70;;;;;;5003180;28;20232;-75
2022/05/29 05:35:56;;;;;;;2.03;1.00;;;20.80;89.00;;;;;;5000764;28;20200;-75
2022/05/29 05:38:25;;;;;;;3.67;1.00;;;20.70;88.80;;;;;;5005185;28;20192;-74
2022/05/29 05:40:55;;;;;;;1.47;0.90;;;20.70;88.80;;;;;;5000436;28;20200;-75
2022/05/29 05:43:23;;;;;;;3.50;0.93;;;20.70;88.60;;;;;;5006802;28;20259;-75
2022/05/29 05:45:52;;;;;;;1.92;1.00;;;20.80;88.80;;;;;;5001396;28;20838;-75
2022/05/29 05:48:20;;;;;;;1.52;1.00;;;20.80;88.70;;;;;;5004759;28;20224;-74
2022/05/29 05:50:59;;;;;;;3.60;1.10;;;20.80;88.80;;;;;;5000218;28;20196;-75
2022/05/29 05:53:28;;;;;;;2.22;1.10;;;20.80;88.60;;;;;;5000921;28;20196;-78
2022/05/29 05:56:05;;;;;;;2.00;1.00;;;20.70;88.20;;;;;;4998736;28;20188;-75
2022/05/29 05:58:33;;;;;;;2.83;1.27;;;20.70;88.20;;;;;;5002952;28;20184;-76
2022/05/29 06:01:05;;;;;;;3.25;1.10;;;20.70;88.30;;;;;;4994464;28;20196;-76
2022/05/29 06:03:34;;;;;;;2.47;1.00;;;20.80;88.60;;;;;;5000132;28;20196;-75
2022/05/29 06:06:02;;;;;;;5.10;1.10;;;20.80;88.60;;;;;;5000947;28;20327;-75
2022/05/29 06:08:31;;;;;;;2.07;1.00;;;20.80;88.50;;;;;;4999001;28;20213;-76
2022/05/29 06:11:01;;;;;;;1.30;1.00;;;20.80;88.60;;;;;;4991636;28;20196;-75
2022/05/29 06:13:29;;;;;;;2.07;1.10;;;20.80;88.60;;;;;;4995925;28;20200;-76
2022/05/29 06:16:00;;;;;;;4.87;2.00;;;20.80;88.60;;;;;;4998223;28;20200;-77
2022/05/29 06:18:29;;;;;;;2.22;1.15;;;20.80;88.70;;;;;;5002500;28;20181;-75
2022/05/29 06:21:02;;;;;;;2.03;1.17;;;20.80;88.60;;;;;;5000966;28;20321;-77
2022/05/29 06:23:30;;;;;;;2.03;1.20;;;20.70;88.40;;;;;;5000419;28;20189;-75
2022/05/29 06:26:03;;;;;;;7.83;1.20;;;20.80;88.30;;;;;;4991831;28;20725;-74
2022/05/29 06:28:31;;;;;;;1.97;1.30;;;20.70;88.50;;;;;;4999318;28;20216;-75
2022/05/29 06:31:00;;;;;;;4.90;1.47;;;20.70;88.50;;;;;;5003535;28;20196;-73
2022/05/29 06:33:36;;;;;;;1.57;1.10;;;20.70;88.60;;;;;;5002628;28;20192;-75
2022/05/29 06:36:09;;;;;;;5.63;1.40;;;20.70;88.50;;;;;;5001947;28;20196;-75
2022/05/29 06:38:38;;;;;;;2.40;1.33;;;20.70;88.60;;;;;;4997841;28;20201;-76
2022/05/29 06:41:10;;;;;;;3.17;1.50;;;20.70;88.60;;;;;;4987224;28;20200;-74
2022/05/29 06:43:38;;;;;;;4.07;1.23;;;20.70;88.50;;;;;;4992794;28;20200;-75
2022/05/29 06:46:08;;;;;;;1.55;0.90;;;20.80;88.60;;;;;;4997945;28;20740;-74
2022/05/29 06:48:38;;;;;;;4.07;1.40;;;20.80;88.00;;;;;;4992853;28;20260;-79
2022/05/29 06:51:07;;;;;;;2.60;1.70;;;20.80;87.80;;;;;;4996472;28;20204;-75
2022/05/29 06:53:36;;;;;;;3.47;1.23;;;20.80;87.50;;;;;;5002692;28;20201;-74
2022/05/29 06:56:06;;;;;;;2.33;1.35;;;20.80;87.70;;;;;;4997939;28;20201;-78
2022/05/29 06:58:36;;;;;;;2.60;1.30;;;20.80;87.90;;;;;;5000900;28;21224;-74
2022/05/29 07:09:24;;;;;;;3.08;1.15;;;21.00;87.10;;;;;;4991011;28;20789;-74
2022/05/29 07:11:57;;;;;;;2.55;1.30;;;21.10;87.10;;;;;;4991297;28;20200;-73
2022/05/29 07:14:27;;;;;;;4.55;1.20;;;21.10;87.70;;;;;;4993066;28;20200;-73
2022/05/29 07:16:55;;;;;;;5.00;1.10;;;21.20;87.20;;;;;;4987264;28;20201;-74
2022/05/29 07:19:26;;;;;;;5.95;1.60;;;21.30;85.70;;;;;;4994106;28;20189;-73
2022/05/29 07:21:57;;;;;;;6.82;1.30;;;21.30;85.70;;;;;;4986013;28;20196;-75
2022/05/29 07:24:26;;;;;;;2.78;1.58;;;21.40;84.80;;;;;;5000264;28;20197;-77
2022/05/29 07:26:55;;;;;;;4.05;1.30;;;21.50;84.60;;;;;;4999685;28;20201;-74
2022/05/29 07:29:24;;;;;;;4.30;1.75;;;21.60;84.60;;;;;;4993492;28;20209;-74
2022/05/29 07:31:54;;;;;;;2.70;1.42;;;21.70;84.10;;;;;;4989478;28;20201;-75
2022/05/29 07:34:24;;;;;;;1.90;1.50;;;21.70;83.80;;;;;;4999987;28;20942;-75
2022/05/29 07:36:52;;;;;;;3.65;1.33;;;21.80;83.40;;;;;;5001310;28;20204;-74
2022/05/29 07:39:22;;;;;;;2.70;1.08;;;21.80;82.60;;;;;;4998936;28;20200;-78
2022/05/29 07:44:42;;;;;;;3.15;1.30;;;21.90;81.30;;;;;;4998066;28;20266;-74
2022/05/29 07:47:12;;;;;;;2.17;1.00;;;22.10;81.30;;;;;;4993703;28;20240;-77
2022/05/29 07:49:40;;;;;;;2.75;1.15;;;22.10;80.80;;;;;;4981775;28;21530;-75
2022/05/29 07:52:09;;;;;;;2.50;1.08;;;22.20;80.90;;;;;;4982847;28;20193;-74
2022/05/29 07:54:37;;;;;;;2.42;1.40;;;22.20;80.80;;;;;;4982780;28;20209;-76
2022/05/29 07:57:06;;;;;;;3.78;1.20;;;22.30;80.40;;;;;;4981226;28;20197;-77
2022/05/29 07:59:34;;;;;;;4.07;1.40;;;22.40;80.80;;;;;;4977761;28;20197;-74
2022/05/29 08:02:08;;;;;;;1.90;1.00;;;22.40;80.20;;;;;;4968763;28;20598;-74
2022/05/29 08:04:40;;;;;;;1.95;1.27;;;22.40;80.60;;;;;;4971190;28;21004;-72
2022/05/29 08:07:08;;;;;;;2.63;1.50;;;22.50;80.80;;;;;;4982720;28;20192;-73
2022/05/29 08:09:37;;;;;;;2.45;1.30;;;22.50;80.20;;;;;;4985717;28;20722;-75
2022/05/29 08:12:06;;;;;;;5.15;1.42;;;22.50;77.70;;;;;;4984349;28;20197;-77
2022/05/29 08:14:34;;;;;;;2.88;1.20;;;22.50;78.20;;;;;;4979561;28;20220;-75
2022/05/29 08:17:03;;;;;;;5.07;1.58;;;22.60;78.30;;;;;;4979165;28;20696;-74
2022/05/29 08:19:33;;;;;;;2.25;1.27;;;22.60;78.80;;;;;;4979479;28;20193;-75
2022/05/29 08:22:04;;;;;;;3.60;1.40;;;22.60;77.00;;;;;;4985420;28;20251;-74
2022/05/29 08:33:02;;;;;;;2.72;1.50;;;22.80;76.60;;;;;;4981901;28;20287;-76
2022/05/29 08:35:31;;;;;;;2.00;1.20;;;22.80;76.70;;;;;;4981198;28;20207;-75
2022/05/29 08:38:02;;;;;;;3.28;1.52;;;22.80;77.20;;;;;;4983913;28;20197;-74
2022/05/29 08:40:32;;;;;;;2.28;1.50;;;22.90;77.50;;;;;;4984376;28;20571;-74
2022/05/29 08:43:00;;;;;;;3.75;1.42;;;22.90;77.00;;;;;;4984348;28;20208;-74
2022/05/29 08:45:30;;;;;;;6.43;1.73;;;22.80;76.50;;;;;;4982951;28;20354;-75
2022/05/29 08:47:59;;;;;;;3.20;1.60;;;22.80;76.30;;;;;;4986114;28;20236;-75
2022/05/29 08:50:33;;;;;;;5.05;1.58;;;22.80;76.40;;;;;;4987494;28;20220;-76
2022/05/29 08:53:06;;;;;;;3.17;1.50;;;22.80;76.30;;;;;;4980591;28;20222;-75
2022/05/29 08:55:43;;;;;;;2.50;1.30;;;22.70;76.50;;;;;;4982682;28;20194;-75
2022/05/29 08:58:33;;;;;;;5.78;1.63;;;22.70;76.60;;;;;;4985934;28;20312;-79
2022/05/29 09:01:14;;;;;;;3.03;1.50;;;22.70;76.90;;;;;;4983845;28;20200;-74
2022/05/29 09:04:05;;;;;;;3.67;1.70;;;22.70;76.60;;;;;;4976884;28;20189;-74
2022/05/29 09:06:36;;;;;;;2.85;1.70;;;22.70;76.90;;;;;;4980754;28;20237;-75
2022/05/29 09:09:13;;;;;;;4.47;1.67;;;22.70;77.00;;;;;;4984691;28;20227;-74
2022/05/29 09:11:48;;;;;;;3.80;1.52;;;22.80;77.30;;;;;;4984008;28;20224;-74
2022/05/29 09:14:22;;;;;;;2.50;1.40;;;22.90;77.50;;;;;;4985511;28;20206;-74
2022/05/29 09:16:59;;;;;;;2.90;1.50;;;22.90;76.70;;;;;;4982832;28;20189;-73
2022/05/29 09:19:35;;;;;;;7.28;1.90;;;23.00;76.80;;;;;;4983987;28;20193;-74
2022/05/29 09:22:11;;;;;;;3.90;1.80;;;23.10;77.00;;;;;;4984302;28;20197;-74
2022/05/29 09:24:53;;;;;;;2.30;1.50;;;23.10;76.70;;;;;;4989071;28;20650;-75
2022/05/29 09:27:23;;;;;;;2.70;1.65;;;23.10;77.00;;;;;;4986080;28;20197;-74
2022/05/29 09:29:52;;;;;;;3.13;1.58;;;23.20;76.40;;;;;;4988533;28;20216;-76
2022/05/29 09:32:23;;;;;;;1.88;1.30;;;23.20;76.10;;;;;;4985085;28;20368;-76
2022/05/29 09:35:01;;;;;;;4.88;2.42;;;23.20;76.30;;;;;;4987366;28;20281;-76
2022/05/29 09:37:48;;;;;;;3.80;1.60;;;23.20;76.30;;;;;;4985548;28;20199;-74
2022/05/29 09:40:22;;;;;;;4.28;1.77;;;23.30;76.10;;;;;;4986371;28;20185;-75
2022/05/29 09:42:54;;;;;;;5.13;2.22;;;23.30;76.30;;;;;;4980603;28;20196;-74
2022/05/29 09:45:30;;;;;;;7.05;2.15;;;23.30;75.90;;;;;;4984320;28;20224;-75
2022/05/29 09:50:50;;;;;;;4.10;1.50;;;23.40;76.00;;;;;;4982447;28;20291;-74
2022/05/29 09:53:35;;;;;;;6.40;2.65;;;23.40;75.90;;;;;;4981334;28;20717;-77
2022/05/29 09:56:08;;;;;;;3.53;1.98;;;23.50;75.90;;;;;;4985175;28;20898;-77
2022/05/29 09:58:54;;;;;;;3.42;1.38;;;23.50;75.60;;;;;;4988231;28;20292;-76
2022/05/29 10:01:34;;;;;;;5.38;1.55;;;23.50;75.80;;;;;;4988174;28;20279;-74
2022/05/29 10:04:05;;;;;;;3.53;1.88;;;23.50;75.20;;;;;;4983261;28;20193;-75
2022/05/29 10:06:41;;;;;;;4.30;2.08;;;23.60;75.50;;;;;;4985509;28;20189;-73
2022/05/29 10:09:13;;;;;;;3.53;2.08;;;23.70;75.50;;;;;;4982295;28;20189;-74
2022/05/29 10:11:45;;;;;;;3.75;1.83;;;23.70;75.50;;;;;;4989109;28;20197;-74
2022/05/29 10:14:36;;;;;;;3.97;1.70;;;23.70;75.00;;;;;;4984573;28;20193;-73
2022/05/29 10:17:13;;;;;;;2.92;1.55;;;23.70;75.00;;;;;;4986935;28;20201;-72
2022/05/29 10:19:44;;;;;;;6.50;1.52;;;23.70;75.10;;;;;;4982877;28;20189;-73
2022/05/29 10:22:17;;;;;;;4.40;2.13;;;23.80;74.80;;;;;;4978790;28;20571;-73
2022/05/29 10:24:46;;;;;;;7.28;1.95;;;23.90;75.00;;;;;;4973176;28;20201;-74
2022/05/29 10:27:28;;;;;;;3.00;1.40;;;24.00;75.10;;;;;;4977642;28;20276;-75
2022/05/29 10:29:59;;;;;;;4.82;1.70;;;24.00;75.10;;;;;;4976182;28;20209;-73
2022/05/29 10:32:31;;;;;;;3.97;1.63;;;24.00;75.20;;;;;;4990201;28;20201;-72
2022/05/29 10:35:22;;;;;;;2.40;1.55;;;24.00;75.10;;;;;;4988329;28;20260;-73
2022/05/29 10:37:53;;;;;;;3.83;2.25;;;24.00;74.70;;;;;;4978265;28;20200;-75
2022/05/29 10:40:25;;;;;;;5.18;1.65;;;24.00;75.00;;;;;;4984150;28;20196;-74
2022/05/29 10:42:59;;;;;;;4.13;1.77;;;23.90;75.00;;;;;;4988476;28;20208;-74
2022/05/29 10:45:32;;;;;;;3.25;1.83;;;23.90;74.90;;;;;;4983313;28;20196;-74
2022/05/29 10:48:30;;;;;;;4.00;1.73;;;23.80;74.70;;;;;;4987276;28;20686;-74
2022/05/29 10:51:22;;;;;;;2.88;1.80;;;23.80;75.20;;;;;;4985713;28;20235;-73
2022/05/29 10:54:05;;;;;;;3.35;1.80;;;23.70;75.50;;;;;;4986645;28;20200;-74
2022/05/29 10:56:44;;;;;;;4.00;1.70;;;23.70;75.50;;;;;;4987360;28;20189;-73
2022/05/29 10:59:33;;;;;;;4.32;2.22;;;23.70;75.60;;;;;;4979756;28;20240;-73
2022/05/29 11:05:16;;;;;;;4.63;2.20;;;23.60;75.80;;;;;;4952270;28;20208;-74
2022/05/29 11:07:59;;;;;;;4.55;2.67;;;23.70;76.50;;;;;;4979296;28;20660;-73
2022/05/29 11:10:46;;;;;;;6.55;2.50;;;23.80;77.60;;;;;;4997387;28;20207;-75
2022/05/29 11:13:29;;;;;;;4.55;2.60;;;23.90;78.40;;;;;;4979578;28;20193;-74
2022/05/29 11:16:11;;;;;;;3.97;2.15;;;24.00;78.50;;;;;;4985488;28;20545;-75
2022/05/29 11:19:03;;;;;;;5.45;2.05;;;24.00;78.30;;;;;;4984045;28;20202;-74
2022/05/29 11:21:44;;;;;;;3.95;2.20;;;24.10;77.70;;;;;;4983453;28;20193;-75
2022/05/29 11:24:35;;;;;;;3.95;2.50;;;24.20;77.20;;;;;;4977764;28;20209;-74
2022/05/29 11:27:12;;;;;;;6.25;2.05;;;24.30;77.40;;;;;;4978600;28;20201;-73
2022/05/29 11:29:55;;;;;;;3.80;2.25;;;24.30;77.30;;;;;;4988577;28;20207;-73
2022/05/29 11:32:47;;;;;;;3.33;2.15;;;24.40;78.00;;;;;;4989584;28;20438;-73
2022/05/29 11:35:31;;;;;;;3.50;2.30;;;24.60;77.30;;;;;;4983590;28;20252;-73
2022/05/29 11:38:24;;;;;;;3.30;2.08;;;24.70;77.10;;;;;;4981350;28;20204;-76
2022/05/29 11:40:57;;;;;;;3.65;2.25;;;24.70;76.40;;;;;;4988629;28;20220;-73
2022/05/29 11:43:33;;;;;;;5.55;2.28;;;24.80;76.30;;;;;;4998926;28;20196;-73
2022/05/29 11:51:53;;;;;;;5.85;3.00;;;25.10;75.60;;;;;;4992475;28;20206;-75
2022/05/29 11:54:27;;;;;;;5.45;2.33;;;25.20;75.50;;;;;;4995053;28;20204;-73
2022/05/29 11:57:02;;;;;;;8.45;3.50;;;25.30;75.40;;;;;;4983376;28;20212;-74
2022/05/29 11:59:45;;;;;;;4.57;2.78;;;25.30;75.30;;;;;;4986174;28;20208;-73
2022/05/29 12:02:26;;;;;;;4.40;2.45;;;25.40;74.50;;;;;;4987939;28;20659;-73
2022/05/29 12:05:01;;;;;;;4.72;2.55;;;25.40;74.50;;;;;;4990125;28;20216;-73
2022/05/29 12:07:36;;;;;;;4.70;2.88;;;25.40;74.40;;;;;;4985677;28;20836;-73
2022/05/29 12:10:11;;;;;;;5.50;3.60;;;25.40;74.20;;;;;;4992517;28;20448;-74
2022/05/29 12:12:44;;;;;;;5.40;3.17;;;25.40;74.20;;;;;;4987460;28;20599;-73
2022/05/29 12:15:18;;;;;;;6.55;3.63;;;25.40;74.20;;;;;;4989056;28;20762;-73
2022/05/29 12:17:50;;;;;;;7.10;3.70;;;25.40;74.30;;;;;;4977437;28;20201;-74
2022/05/29 12:20:27;;;;;;;10.02;6.43;;;25.50;74.60;;;;;;4981114;28;20289;-75
2022/05/29 12:22:58;;;;;;;10.38;6.93;;;25.60;74.70;;;;;;4986157;28;20280;-73
2022/05/29 12:25:33;;;;;;;6.80;3.97;;;25.80;74.50;;;;;;4987963;28;20208;-74
2022/05/29 12:28:06;;;;;;;5.18;3.20;;;25.90;74.20;;;;;;4987407;28;20593;-73
2022/05/29 12:30:41;;;;;;;5.32;3.63;;;26.10;73.80;;;;;;4992160;28;20747;-72
2022/05/29 12:33:13;;;;;;;6.15;4.03;;;26.20;73.00;;;;;;4988789;28;20204;-73
2022/05/29 12:35:55;;;;;;;7.07;4.40;;;26.20;73.10;;;;;;4988163;28;20210;-74
2022/05/29 12:38:46;;;;;;;8.77;5.10;;;26.10;72.60;;;;;;4987590;28;20203;-72
2022/05/29 12:41:25;;;;;;;9.70;5.75;;;26.20;72.90;;;;;;4966799;28;20252;-73
2022/05/29 12:44:26;;;;;;;12.32;7.47;;;26.20;72.70;;;;;;4983288;28;20192;-74
2022/05/29 12:47:11;;;;;;;8.18;4.90;;;26.20;72.20;;;;;;4979982;28;20264;-71
2022/05/29 12:50:10;;;;;;;8.85;5.80;;;26.30;72.70;;;;;;4973268;28;20202;-73
2022/05/29 12:52:55;;;;;;;9.60;5.57;;;26.50;72.70;;;;;;4981286;28;20652;-72
2022/05/29 12:55:42;;;;;;;8.80;5.05;;;26.50;72.00;;;;;;4981533;28;20193;-71
2022/05/29 12:58:37;;;;;;;8.40;4.80;;;26.50;72.20;;;;;;4982002;28;20761;-74
2022/05/29 13:01:24;;;;;;;7.97;4.88;;;26.50;71.80;;;;;;4974909;28;20192;-73
2022/05/29 13:04:30;;;;;;;6.68;4.32;;;26.30;71.20;;;;;;4975427;28;20651;-73
2022/05/29 13:07:23;;;;;;;9.73;4.15;;;26.20;71.10;;;;;;4981058;28;20201;-74
2022/05/29 13:10:13;;;;;;;5.78;4.32;;;26.00;71.40;;;;;;4972348;28;20205;-72
2022/05/29 13:12:47;;;;;;;11.85;6.60;;;25.90;71.70;;;;;;4977475;28;20228;-71
2022/05/29 13:15:33;;;;;;;8.20;5.65;;;25.80;72.00;;;;;;4979952;28;20197;-74
2022/05/29 13:18:05;;;;;;;7.30;4.75;;;25.80;72.20;;;;;;4977159;28;20584;-72
2022/05/29 13:21:06;;;;;;;6.72;4.82;;;25.70;72.20;;;;;;4978391;28;20229;-73
2022/05/29 13:23:37;;;;;;;9.52;5.65;;;25.70;72.70;;;;;;4982243;28;20189;-72
2022/05/29 13:26:19;;;;;;;7.75;4.75;;;25.70;73.00;;;;;;4976161;28;20220;-71
2022/05/29 13:28:59;;;;;;;6.70;3.92;;;25.70;73.10;;;;;;4984938;28;20197;-72
2022/05/29 13:31:31;;;;;;;8.00;4.22;;;25.90;73.50;;;;;;4986399;28;20323;-73
2022/05/29 13:34:28;;;;;;;6.78;4.03;;;25.90;73.30;;;;;;4985130;28;20212;-71
2022/05/29 13:37:02;;;;;;;5.55;3.67;;;25.80;73.00;;;;;;4979807;28;20288;-72
2022/05/29 13:40:00;;;;;;;9.75;3.80;;;25.80;73.00;;;;;;4985059;28;20262;-71
2022/05/29 13:42:37;;;;;;;7.78;3.63;;;25.70;73.10;;;;;;4977531;28;20224;-71
2022/05/29 13:45:42;;;;;;;6.53;4.32;;;25.70;73.30;;;;;;4984001;28;20196;-73
2022/05/29 13:48:18;;;;;;;6.88;4.35;;;25.60;73.50;;;;;;4975584;28;20239;-70
2022/05/29 13:50:52;;;;;;;5.95;4.50;;;25.50;73.60;;;;;;4978230;28;20193;-73
2022/05/29 13:53:50;;;;;;;5.93;4.85;;;25.50;73.50;;;;;;4985923;28;20208;-73
2022/05/29 13:56:20;;;;;;;7.57;4.35;;;25.60;74.20;;;;;;4961598;28;20252;-71
2022/05/29 14:04:50;;;;;;;5.88;2.88;;;25.60;74.60;;;;;;4984457;28;20664;-72
2022/05/29 14:07:30;;;;;;;5.40;3.17;;;25.70;74.60;;;;;;4979888;28;20189;-77
2022/05/29 14:10:27;;;;;;;5.20;3.17;;;25.80;74.50;;;;;;4981488;28;20357;-74